createdAt,value
2018-08-03T00:14:29.658Z,23.2
2018-08-03T00:31:19.526Z,22.9
2018-08-03T00:48:09.252Z,22.6
2018-08-03T01:04:58.391Z,22.6
2018-08-03T01:21:47.513Z,22.2
2018-08-03T01:38:37.206Z,21.9
2018-08-03T01:55:25.107Z,21.9
2018-08-03T02:12:13.763Z,21.6
2018-08-03T02:29:02.081Z,21.3
2018-08-03T02:45:50.253Z,21.3
2018-08-03T03:02:38.406Z,21.3
2018-08-03T03:36:13.870Z,21.0
2018-08-03T03:53:01.152Z,20.6
2018-08-03T04:09:48.324Z,20.6
2018-08-03T04:26:35.464Z,20.6
2018-08-03T04:43:22.659Z,20.6
2018-08-03T05:00:10.506Z,21.0
2018-08-03T05:16:58.595Z,21.3
2018-08-03T05:33:46.963Z,21.6
2018-08-03T05:50:36.236Z,21.9
2018-08-03T06:00:41.123Z,22.6
2018-08-03T06:14:08.632Z,23.2
2018-08-03T06:27:36.760Z,23.8
2018-08-03T06:44:27.457Z,24.5
2018-08-03T06:54:34.187Z,25.1
2018-08-03T07:04:41.507Z,25.8
2018-08-03T07:21:33.922Z,26.1
2018-08-03T07:35:04.198Z,26.7
2018-08-03T07:45:12.316Z,27.4
2018-08-03T08:02:06.855Z,27.7
2018-08-03T08:12:16.034Z,28.3
2018-08-03T08:22:25.549Z,29.0
2018-08-03T08:39:21.890Z,29.0
2018-08-03T08:56:18.408Z,29.3
2018-08-03T09:08:10.102Z,29.9
2018-08-03T09:21:44.606Z,30.2
2018-08-03T09:38:41.703Z,30.2
2018-08-03T09:50:34.348Z,30.9
2018-08-03T10:05:51.019Z,30.9
2018-08-03T10:16:02.253Z,31.5
2018-08-03T10:33:01.239Z,31.8
2018-08-03T10:46:36.753Z,32.5
2018-08-03T11:00:12.104Z,33.1
2018-08-03T11:17:12.100Z,33.1
2018-08-03T11:34:12.378Z,33.1
2018-08-03T11:47:48.609Z,33.8
2018-08-03T11:54:37.018Z,33.8
2018-08-03T12:11:37.512Z,33.8
2018-08-03T12:25:14.315Z,34.4
2018-08-03T12:42:15.579Z,34.1
2018-08-03T12:59:16.429Z,34.1
2018-08-03T13:16:17.519Z,34.7
2018-08-03T13:33:18.945Z,34.7
2018-08-03T14:07:20.605Z,33.8
2018-08-03T14:24:21.339Z,34.1
2018-08-03T14:41:21.960Z,33.8
2018-08-03T14:58:22.692Z,33.4
2018-08-03T15:15:23.319Z,34.1
2018-08-03T15:32:24.391Z,34.1
2018-08-03T15:40:54.906Z,34.7
2018-08-03T15:57:56.190Z,34.4
2018-08-03T16:06:26.426Z,33.8
2018-08-03T16:23:27.085Z,33.4
2018-08-03T16:40:27.240Z,33.1
2018-08-03T16:47:15.950Z,33.8
2018-08-03T16:54:03.854Z,34.4
2018-08-03T17:02:34.728Z,35.4
2018-08-03T17:19:37.241Z,36.0
2018-08-03T17:28:08.539Z,35.0
2018-08-03T17:36:39.077Z,34.1
2018-08-03T17:43:28.315Z,33.4
2018-08-03T17:50:15.359Z,32.8
2018-08-03T18:05:33.023Z,32.2
2018-08-03T18:19:08.721Z,31.5
2018-08-03T18:36:07.633Z,30.9
2018-08-03T18:53:05.850Z,30.6
2018-08-03T19:06:39.596Z,30.2
2018-08-03T19:16:49.573Z,29.6
2018-08-03T19:26:59.382Z,29.3
2018-08-03T19:43:55.029Z,28.6
2018-08-03T20:00:50.539Z,28.3
2018-08-03T20:10:59.429Z,28.0
2018-08-03T20:27:53.871Z,27.7
2018-08-03T20:44:48.091Z,27.4
2018-08-03T21:01:41.798Z,26.7
2018-08-03T21:18:35.030Z,26.4
2018-08-03T21:35:27.979Z,26.1
2018-08-03T22:09:12.900Z,25.4
2018-08-03T22:26:04.969Z,25.4
2018-08-03T22:42:56.819Z,24.8
2018-08-03T22:59:48.232Z,24.8
2018-08-03T23:16:39.494Z,24.5
2018-08-03T23:33:30.621Z,24.5
2018-08-03T23:50:21.518Z,23.8
